Time;durP1;ratioP1;P1;durP2;ratioP2;P2;SDS_P1;SDS_P2;PMS_P1;PMS_P2;Temp;Humidity;BMP_temperature;BMP_pressure;BME280_temperature;BME280_humidity;BME280_pressure;Samples;Min_cycle;Max_cycle;Signal;HPM_P1;HPM_P2
2021/11/30 00:01:06;;;;;;;;;5.75;5.75;;;;;20.39;37.04;101684.16;5016594;28;45494;-76
2021/11/30 00:03:35;;;;;;;;;6.50;6.50;;;;;20.38;37.39;101682.50;5023129;28;45479;-75
2021/11/30 00:06:01;;;;;;;;;5.75;4.00;;;;;19.92;37.46;101600.53;5023457;27;45449;-75
2021/11/30 00:08:31;;;;;;;;;8.50;7.00;;;;;20.47;37.07;101688.72;5017181;28;46053;-76
2021/11/30 00:11:00;;;;;;;;;6.75;5.25;;;;;20.45;37.49;101677.47;5015908;28;45384;-76
2021/11/30 00:13:27;;;;;;;;;5.00;5.00;;;;;20.47;37.33;101683.44;5034568;28;45397;-76
2021/11/30 00:15:55;;;;;;;;;5.25;5.25;;;;;20.44;37.17;101670.50;5034352;28;45290;-74
2021/11/30 00:18:21;;;;;;;;;6.00;5.75;;;;;20.40;37.16;101663.88;5032363;27;46322;-75
2021/11/30 00:20:46;;;;;;;;;5.25;5.00;;;;;20.47;37.46;101683.44;5032780;27;45515;-76
2021/11/30 00:23:14;;;;;;;;;6.75;5.75;;;;;20.46;37.11;101679.09;5033134;27;45468;-76
2021/11/30 00:25:40;;;;;;;;;7.75;6.25;;;;;20.46;37.16;101683.56;5032994;28;45635;-76
2021/11/30 00:28:06;;;;;;;;;5.25;5.25;;;;;20.45;37.08;101672.19;5034858;28;45395;-76
2021/11/30 00:30:34;;;;;;;;;7.00;5.75;;;;;20.42;36.84;101667.19;5032729;28;45567;-75
2021/11/30 00:33:01;;;;;;;;;8.75;5.00;;;;;20.44;37.13;101669.66;5031211;28;45741;-75
2021/11/30 00:35:27;;;;;;;;;6.75;6.75;;;;;20.38;36.81;101650.78;5032741;28;45452;-76
2021/11/30 00:37:52;;;;;;;;;7.50;6.25;;;;;20.44;36.84;101653.81;5032877;27;45406;-75
2021/11/30 00:40:18;;;;;;;;;7.25;7.25;;;;;20.44;36.93;101653.81;5016926;28;45894;-76
2021/11/30 00:42:44;;;;;;;;;6.00;6.00;;;;;20.43;36.99;101652.16;5031567;28;45389;-76
2021/11/30 00:45:15;;;;;;;;;6.75;5.75;;;;;20.44;36.89;101659.09;5031647;28;45516;-75
2021/11/30 00:47:56;;;;;;;;;5.00;5.00;;;;;20.30;36.97;101634.84;5032079;28;46812;-75
2021/11/30 00:50:24;;;;;;;;;7.75;5.75;;;;;20.40;36.95;101659.38;5032578;27;45300;-76
2021/11/30 00:52:51;;;;;;;;;6.50;5.75;;;;;20.32;37.01;101637.34;5032627;28;45358;-77
2021/11/30 00:55:16;;;;;;;;;5.75;5.75;;;;;20.42;36.76;101655.78;5034738;28;45442;-74
2021/11/30 00:57:43;;;;;;;;;9.00;5.00;;;;;20.39;36.51;101654.25;5032268;28;47271;-75
2021/11/30 01:00:15;;;;;;;;;7.00;6.00;;;;;20.38;36.81;101647.31;5032111;28;45586;-75
2021/11/30 01:02:41;;;;;;;;;5.00;5.00;;;;;20.38;36.70;101650.78;5032135;28;45618;-75
2021/11/30 01:05:09;;;;;;;;;5.50;4.50;;;;;20.42;36.67;101653.97;5030567;28;45604;-76
2021/11/30 01:07:35;;;;;;;;;6.00;6.00;;;;;20.26;36.69;101628.19;5032368;27;45463;-76
2021/11/30 01:10:08;;;;;;;;;4.00;4.00;;;;;20.38;36.63;101639.38;5034539;28;45416;-75
2021/11/30 01:12:34;;;;;;;;;6.75;6.75;;;;;20.36;36.55;101628.13;5030801;27;45339;-75
2021/11/30 01:15:00;;;;;;;;;6.00;6.00;;;;;20.41;36.71;101647.00;5032427;27;45599;-76
2021/11/30 01:17:25;;;;;;;;;6.00;4.75;;;;;20.39;36.62;101655.09;5031740;28;46252;-75
2021/11/30 01:19:51;;;;;;;;;5.00;5.00;;;;;20.37;36.67;101637.72;5032284;28;45453;-75
2021/11/30 01:22:16;;;;;;;;;5.00;5.00;;;;;20.44;36.51;101646.72;5033599;28;45720;-75
2021/11/30 01:24:41;;;;;;;;;4.50;4.50;;;;;20.46;36.41;101651.84;5031061;27;45317;-75
2021/11/30 01:27:07;;;;;;;;;7.00;4.00;;;;;20.46;36.45;101639.47;5032116;28;45596;-75
2021/11/30 01:29:32;;;;;;;;;6.75;4.75;;;;;20.40;36.60;101635.59;5014586;28;45608;-73
2021/11/30 01:31:58;;;;;;;;;4.00;4.00;;;;;20.46;36.42;101641.25;5032238;28;45520;-75
2021/11/30 01:34:23;;;;;;;;;6.25;6.00;;;;;20.34;36.70;101620.34;5033645;28;45370;-75
2021/11/30 01:36:48;;;;;;;;;6.00;6.00;;;;;20.43;36.59;101637.09;5032587;28;46094;-77
2021/11/30 01:39:14;;;;;;;;;5.00;5.00;;;;;20.15;36.51;101603.63;5032053;27;45460;-76
2021/11/30 01:41:41;;;;;;;;;6.00;6.00;;;;;20.45;36.55;101643.09;5032136;27;45473;-76
2021/11/30 01:44:11;;;;;;;;;6.25;5.25;;;;;20.42;36.63;101630.19;5031931;28;45484;-76
2021/11/30 01:46:52;;;;;;;;;6.00;6.00;;;;;20.39;36.51;101626.03;5032368;27;46542;-76
2021/11/30 01:49:26;;;;;;;;;5.75;4.75;;;;;20.31;36.42;101607.44;5029919;28;45441;-76
2021/11/30 01:51:52;;;;;;;;;6.00;5.25;;;;;20.35;36.52;101616.72;5030998;28;45497;-75
2021/11/30 01:54:17;;;;;;;;;4.75;4.75;;;;;20.42;36.48;101629.34;5013955;28;45577;-75
2021/11/30 01:56:43;;;;;;;;;6.25;4.75;;;;;20.36;36.35;101617.56;5031678;27;47344;-72
2021/11/30 01:59:08;;;;;;;;;5.25;4.00;;;;;20.40;36.30;101624.22;5031623;28;45394;-75
2021/11/30 02:01:34;;;;;;;;;4.25;4.25;;;;;20.40;36.41;101626.88;5032633;28;45393;-76
2021/11/30 02:03:59;;;;;;;;;5.25;4.75;;;;;20.41;36.38;101631.16;5032252;27;45455;-71
2021/11/30 02:06:25;;;;;;;;;7.00;6.00;;;;;20.39;36.56;101620.75;5031551;28;47129;-76
2021/11/30 02:08:50;;;;;;;;;6.00;6.00;;;;;20.25;36.31;101600.09;5031567;27;45290;-76
2021/11/30 02:11:16;;;;;;;;;3.25;3.25;;;;;20.33;36.31;101608.09;5031897;28;45330;-75
2021/11/30 02:13:41;;;;;;;;;6.00;6.00;;;;;20.29;36.17;101607.59;5031294;27;45307;-76
2021/11/30 02:16:07;;;;;;;;;6.00;5.00;;;;;20.20;36.46;101595.25;5033605;28;46817;-75
2021/11/30 02:18:39;;;;;;;;;5.50;4.50;;;;;20.35;36.14;101607.97;5031542;28;45349;-76
2021/11/30 02:21:06;;;;;;;;;6.75;6.75;;;;;20.39;36.35;101604.03;5031267;27;45468;-76
2021/11/30 02:26:05;;;;;;;;;4.25;3.50;;;;;20.37;36.31;101628.00;5031370;28;45754;-76
2021/11/30 02:28:30;;;;;;;;;5.25;5.00;;;;;20.38;36.30;101620.88;5032082;28;45290;-76
2021/11/30 02:30:56;;;;;;;;;6.00;4.75;;;;;20.38;36.43;101626.16;5031083;28;45568;-75
2021/11/30 02:33:21;;;;;;;;;5.00;5.00;;;;;20.37;35.91;101619.22;5031165;28;45348;-75
2021/11/30 02:35:47;;;;;;;;;5.75;4.75;;;;;20.36;36.19;101623.66;5031147;28;45492;-75
2021/11/30 02:38:12;;;;;;;;;6.00;5.00;;;;;20.36;36.30;101613.09;5031320;28;45579;-76
2021/11/30 02:40:37;;;;;;;;;3.50;3.50;;;;;20.34;36.40;101617.72;5032026;28;45302;-75
2021/11/30 02:43:04;;;;;;;;;5.00;3.75;;;;;20.36;36.30;101615.75;5010423;28;45507;-75
2021/11/30 02:45:30;;;;;;;;;5.00;5.00;;;;;20.36;36.31;101621.03;5029177;28;47260;-76
2021/11/30 02:47:56;;;;;;;;;3.50;3.50;;;;;20.25;36.20;101597.44;5031270;28;45629;-76
2021/11/30 02:50:21;;;;;;;;;4.00;4.00;;;;;20.36;36.21;101621.03;5031172;27;45402;-76
2021/11/30 02:52:47;;;;;;;;;4.00;3.75;;;;;20.29;36.32;101609.41;5031457;27;45327;-75
2021/11/30 02:55:13;;;;;;;;;5.75;4.25;;;;;20.36;36.25;101614.91;5033238;28;46285;-76
2021/11/30 02:57:38;;;;;;;;;4.25;3.00;;;;;20.35;36.20;101610.63;5030634;28;45426;-76
2021/11/30 03:00:06;;;;;;;;;6.25;4.50;;;;;20.24;36.19;101594.00;5031014;27;45353;-76
2021/11/30 03:02:33;;;;;;;;;7.50;5.75;;;;;20.32;36.26;101603.00;5030993;28;45455;-75
2021/11/30 03:05:01;;;;;;;;;5.00;5.00;;;;;20.31;36.42;101602.16;5031011;28;46115;-76
2021/11/30 03:07:35;;;;;;;;;3.00;3.00;;;;;20.38;36.21;101602.38;5031790;28;45441;-76
2021/11/30 03:10:00;;;;;;;;;8.50;4.25;;;;;20.38;36.16;101608.50;5031258;28;45474;-72
2021/11/30 03:12:26;;;;;;;;;4.25;3.75;;;;;20.23;36.17;101578.28;5030453;28;45501;-73
2021/11/30 03:14:51;;;;;;;;;3.25;3.00;;;;;20.34;36.56;101598.38;5030804;28;45527;-76
2021/11/30 03:17:18;;;;;;;;;5.50;5.50;;;;;20.40;36.23;101613.66;5030778;28;45475;-75
2021/11/30 03:19:43;;;;;;;;;4.25;3.25;;;;;20.37;36.20;101604.19;5030656;27;45425;-76
2021/11/30 03:22:09;;;;;;;;;3.00;3.00;;;;;20.39;36.19;101601.41;5032099;28;45342;-76
2021/11/30 03:24:35;;;;;;;;;3.75;3.75;;;;;20.41;36.06;101596.78;5030455;27;45403;-75
2021/11/30 03:27:01;;;;;;;;;3.00;3.00;;;;;20.31;36.19;101588.94;5030285;27;45443;-75
2021/11/30 03:29:27;;;;;;;;;6.00;2.50;;;;;20.38;36.25;101597.09;5030625;27;45349;-76
2021/11/30 03:32:03;;;;;;;;;4.00;4.00;;;;;20.41;36.18;101583.56;5030727;27;45296;-75
2021/11/30 03:34:29;;;;;;;;;4.00;4.00;;;;;20.32;36.02;101584.50;5031276;27;47119;-76
2021/11/30 03:36:56;;;;;;;;;4.25;4.00;;;;;20.42;36.27;101594.97;5031837;28;46097;-76
2021/11/30 03:39:27;;;;;;;;;5.25;4.25;;;;;20.40;36.17;101595.16;5030505;27;45365;-76
2021/11/30 03:41:55;;;;;;;;;5.50;4.25;;;;;20.37;36.24;101598.91;5030180;28;45247;-76
2021/11/30 03:44:21;;;;;;;;;4.00;4.00;;;;;20.39;36.12;101590.81;5029827;28;47068;-75
2021/11/30 03:46:47;;;;;;;;;5.00;3.75;;;;;20.38;36.21;101603.19;5013194;28;45355;-75
2021/11/30 03:49:13;;;;;;;;;4.75;4.25;;;;;20.37;36.05;101591.00;5032215;28;45339;-76
2021/11/30 03:51:39;;;;;;;;;3.00;3.00;;;;;20.34;36.37;101579.88;5013687;27;45347;-76
2021/11/30 03:54:06;;;;;;;;;5.00;3.00;;;;;20.37;36.13;101596.28;5029876;27;47442;-75
2021/11/30 03:56:32;;;;;;;;;4.00;4.00;;;;;20.31;36.22;101578.38;5029893;28;45358;-76
2021/11/30 03:58:58;;;;;;;;;3.25;3.00;;;;;20.38;36.20;101584.69;5029164;28;45441;-76
2021/11/30 04:01:24;;;;;;;;;4.00;3.25;;;;;20.33;36.15;101581.69;5031395;28;45466;-75
2021/11/30 04:03:49;;;;;;;;;5.00;3.25;;;;;20.05;36.18;101526.22;5030756;28;46363;-75
2021/11/30 04:06:15;;;;;;;;;4.00;2.00;;;;;20.38;36.01;101581.22;5029989;27;45406;-75
2021/11/30 04:08:41;;;;;;;;;5.50;3.00;;;;;20.37;35.98;101575.13;5030286;28;47890;-76
2021/11/30 04:11:08;;;;;;;;;5.25;3.25;;;;;20.38;36.12;101575.94;5029909;27;45357;-75
2021/11/30 04:13:34;;;;;;;;;3.00;3.00;;;;;20.05;36.21;101516.50;5029778;27;47187;-76
2021/11/30 04:15:59;;;;;;;;;2.75;2.75;;;;;20.38;35.92;101576.78;5032146;28;45512;-75
2021/11/30 04:18:25;;;;;;;;;3.25;3.25;;;;;20.29;36.12;101564.47;5029788;27;45424;-75
2021/11/30 04:20:51;;;;;;;;;6.25;4.25;;;;;20.37;36.35;101577.78;5029785;28;45413;-76
2021/11/30 04:23:16;;;;;;;;;3.75;2.00;;;;;20.05;36.23;101528.88;5029785;28;45297;-75
2021/11/30 04:25:42;;;;;;;;;3.00;3.00;;;;;20.25;36.25;101557.81;5029118;28;45278;-75
2021/11/30 04:28:07;;;;;;;;;2.50;2.50;;;;;20.36;36.14;101567.34;5031167;28;45500;-76
2021/11/30 04:30:32;;;;;;;;;3.25;3.00;;;;;20.36;36.21;101564.69;5029729;28;45449;-75
2021/11/30 04:32:58;;;;;;;;;4.75;4.75;;;;;20.28;36.17;101552.22;5029582;27;45484;-76
2021/11/30 04:35:25;;;;;;;;;3.00;3.00;;;;;20.30;36.23;101555.53;5029705;28;45433;-75
2021/11/30 04:37:50;;;;;;;;;2.75;2.50;;;;;20.30;35.91;101566.13;5028704;28;45475;-76
2021/11/30 04:40:17;;;;;;;;;7.00;3.75;;;;;20.36;36.17;101568.16;5031579;28;45418;-76
2021/11/30 04:42:44;;;;;;;;;7.50;3.75;;;;;20.35;36.22;101558.56;5029126;28;46092;-75
2021/11/30 04:45:16;;;;;;;;;4.50;2.25;;;;;20.36;36.16;101562.03;5029372;28;45611;-76
2021/11/30 04:47:42;;;;;;;;;3.00;2.75;;;;;20.35;36.22;101563.06;5029565;28;45329;-74
2021/11/30 04:50:16;;;;;;;;;2.00;2.00;;;;;20.35;36.08;101560.41;5029346;28;45495;-75
2021/11/30 04:52:44;;;;;;;;;3.00;3.00;;;;;20.04;35.74;101516.63;5029426;28;46637;-75
2021/11/30 04:55:09;;;;;;;;;3.00;3.00;;;;;20.34;36.01;101561.38;5031138;28;45362;-76
2021/11/30 04:57:35;;;;;;;;;2.00;2.00;;;;;20.26;36.18;101546.28;5030584;28;45647;-76
2021/11/30 05:00:00;;;;;;;;;1.50;1.50;;;;;20.28;36.24;101544.31;5032780;28;45496;-75
2021/11/30 05:02:25;;;;;;;;;3.00;2.75;;;;;20.35;36.13;101548.00;5032261;28;46786;-75
2021/11/30 05:04:51;;;;;;;;;4.00;2.25;;;;;20.18;35.91;101524.09;5031255;28;45619;-75
2021/11/30 05:07:17;;;;;;;;;5.00;3.00;;;;;20.30;35.88;101547.63;5034654;28;45415;-75
2021/11/30 05:09:43;;;;;;;;;3.00;3.00;;;;;20.24;35.98;101535.03;5032288;28;45484;-76
2021/11/30 05:12:10;;;;;;;;;2.50;2.00;;;;;20.30;36.36;101537.06;5032249;28;46196;-75
2021/11/30 05:14:35;;;;;;;;;3.50;3.25;;;;;20.28;36.16;101528.44;5032229;27;45542;-76
2021/11/30 05:17:01;;;;;;;;;3.00;2.50;;;;;20.34;36.16;101542.88;5031465;28;45488;-76
2021/11/30 05:19:26;;;;;;;;;4.25;2.75;;;;;20.39;36.11;101553.81;5033123;28;45512;-75
2021/11/30 05:21:52;;;;;;;;;2.00;2.00;;;;;20.41;36.06;101557.13;5033387;27;46302;-72
2021/11/30 05:24:20;;;;;;;;;3.00;3.00;;;;;20.36;36.18;101554.13;5031693;27;45701;-75
2021/11/30 05:26:47;;;;;;;;;4.75;2.75;;;;;20.34;36.40;101545.53;5032210;27;45277;-76
2021/11/30 05:29:12;;;;;;;;;3.00;3.00;;;;;20.36;36.46;101538.25;5032355;28;45405;-76
2021/11/30 05:31:37;;;;;;;;;3.00;3.00;;;;;20.08;35.92;101494.25;5031953;28;45223;-74
2021/11/30 05:34:03;;;;;;;;;2.00;2.00;;;;;20.15;36.13;101507.69;5034295;28;45472;-76
2021/11/30 05:36:32;;;;;;;;;3.00;3.00;;;;;20.31;36.38;101533.44;5032237;28;45444;-74
2021/11/30 05:38:57;;;;;;;;;3.00;3.00;;;;;20.42;36.08;101552.69;5031646;28;45462;-76
2021/11/30 05:41:23;;;;;;;;;2.75;2.75;;;;;20.40;36.17;101552.84;5031697;28;47143;-75
2021/11/30 05:43:48;;;;;;;;;3.00;2.00;;;;;20.40;36.11;101551.00;5030950;28;45400;-76
2021/11/30 05:46:14;;;;;;;;;3.00;3.00;;;;;20.31;36.07;101540.53;5034225;27;45409;-75
2021/11/30 05:48:39;;;;;;;;;3.25;2.00;;;;;20.39;36.08;101554.66;5032220;27;45534;-75
2021/11/30 05:51:05;;;;;;;;;3.50;3.50;;;;;20.36;35.97;101544.38;5031399;27;46017;-76
2021/11/30 05:53:30;;;;;;;;;4.00;3.00;;;;;20.28;35.98;101534.56;5031649;27;45412;-75
2021/11/30 05:55:58;;;;;;;;;2.00;2.00;;;;;20.38;35.98;101549.50;5031043;28;45412;-75
2021/11/30 05:58:24;;;;;;;;;3.00;3.00;;;;;20.38;35.69;101552.16;5033334;28;45388;-75
2021/11/30 06:00:51;;;;;;;;;4.00;2.00;;;;;20.29;36.23;101530.97;5032327;28;46300;-75
2021/11/30 06:03:28;;;;;;;;;3.25;2.50;;;;;20.33;36.13;101535.91;5031377;28;45408;-75
2021/11/30 06:05:54;;;;;;;;;2.00;2.00;;;;;20.29;35.92;101530.97;5031329;28;45530;-76
2021/11/30 06:08:19;;;;;;;;;3.25;2.00;;;;;20.38;36.08;101544.22;5031122;28;45549;-75
2021/11/30 06:10:45;;;;;;;;;4.00;2.00;;;;;20.08;36.12;101494.25;5031601;28;45964;-75
2021/11/30 06:13:10;;;;;;;;;2.50;1.50;;;;;20.37;36.17;101539.94;5033817;28;45387;-76
2021/11/30 06:15:35;;;;;;;;;3.50;2.25;;;;;20.38;36.22;101536.28;5031585;28;45528;-75
2021/11/30 06:18:01;;;;;;;;;3.00;2.00;;;;;20.08;36.14;101504.81;5015305;28;45411;-75
2021/11/30 06:20:26;;;;;;;;;3.25;2.00;;;;;20.11;36.05;101509.78;5013310;28;46337;-76
2021/11/30 06:22:52;;;;;;;;;1.75;1.75;;;;;19.99;36.46;101487.19;5030031;28;45533;-76
2021/11/30 06:25:17;;;;;;;;;3.00;3.00;;;;;20.22;36.27;101516.66;5012846;28;45750;-76
2021/11/30 06:27:43;;;;;;;;;1.75;1.75;;;;;20.36;36.07;101544.38;5014898;28;45431;-75
2021/11/30 06:30:09;;;;;;;;;4.00;2.75;;;;;20.03;36.18;101489.41;5031350;28;45526;-75
2021/11/30 06:32:34;;;;;;;;;2.00;2.00;;;;;20.02;36.35;101495.66;5031263;28;45496;-75
2021/11/30 06:35:00;;;;;;;;;2.75;2.75;;;;;20.36;36.23;101543.53;5029998;27;45499;-75
2021/11/30 06:37:26;;;;;;;;;3.00;2.25;;;;;20.35;36.15;101548.00;5032659;28;45447;-75
2021/11/30 06:39:53;;;;;;;;;3.00;2.00;;;;;20.18;36.22;101532.00;5032359;28;45455;-75
2021/11/30 06:42:18;;;;;;;;;4.50;2.25;;;;;20.31;35.91;101537.88;5031092;28;45459;-80
2021/11/30 06:44:46;;;;;;;;;2.00;2.00;;;;;20.15;36.33;101524.38;5031205;28;45325;-73
2021/11/30 06:47:11;;;;;;;;;1.50;1.50;;;;;20.26;36.35;101538.34;5031568;28;45279;-73
2021/11/30 06:49:37;;;;;;;;;2.00;2.00;;;;;20.34;36.30;101551.63;5024088;28;46639;-74
2021/11/30 06:52:03;;;;;;;;;2.00;2.00;;;;;20.35;36.41;101552.47;5031441;28;45281;-73
2021/11/30 06:54:28;;;;;;;;;2.75;2.75;;;;;20.35;36.41;101555.94;5031068;27;45439;-73
2021/11/30 06:56:53;;;;;;;;;2.25;2.25;;;;;20.34;36.25;101554.28;5031180;28;45405;-73
2021/11/30 06:59:20;;;;;;;;;1.75;1.00;;;;;20.37;36.64;101545.22;5031074;28;45497;-73
2021/11/30 07:01:45;;;;;;;;;2.75;2.75;;;;;20.32;36.86;101537.75;5030348;28;45542;-74
2021/11/30 07:04:11;;;;;;;;;1.75;1.25;;;;;20.27;36.38;101524.16;5032121;28;45332;-74
2021/11/30 07:14:13;;;;;;;;;1.00;1.00;;;;;20.33;36.72;101528.00;5029931;28;45521;-74
2021/11/30 07:16:39;;;;;;;;;2.00;2.00;;;;;20.34;36.62;101527.03;5030824;28;45419;-74
2021/11/30 07:19:05;;;;;;;;;1.00;1.00;;;;;20.43;36.61;101549.06;5030754;27;47008;-74
2021/11/30 07:21:31;;;;;;;;;2.00;2.00;;;;;20.44;36.80;101548.06;5029190;28;45484;-74
2021/11/30 07:23:57;;;;;;;;;2.50;2.25;;;;;20.44;36.72;101553.38;5030145;28;45334;-75
2021/11/30 07:26:24;;;;;;;;;1.25;1.25;;;;;20.43;36.57;101549.06;5028965;28;45747;-75
2021/11/30 07:28:50;;;;;;;;;1.75;1.75;;;;;20.44;36.79;101545.44;5030613;28;46282;-75
2021/11/30 07:31:15;;;;;;;;;2.00;1.00;;;;;20.46;36.66;101541.66;5028427;28;45414;-74
2021/11/30 07:33:44;;;;;;;;;3.00;1.00;;;;;20.45;36.62;101549.75;5030641;28;45498;-74
2021/11/30 07:36:11;;;;;;;;;1.75;1.75;;;;;20.44;36.76;101545.44;5030571;28;45351;-75
2021/11/30 07:38:39;;;;;;;;;5.00;2.00;;;;;20.44;36.67;101540.97;5030458;27;45549;-75
2021/11/30 07:41:05;;;;;;;;;2.00;2.00;;;;;20.31;36.81;101522.03;5029076;27;45422;-75
2021/11/30 07:43:31;;;;;;;;;2.00;2.00;;;;;20.44;36.78;101546.28;5031038;27;45479;-74
2021/11/30 07:45:56;;;;;;;;;3.00;2.00;;;;;20.43;36.86;101549.88;5032019;28;45571;-75
2021/11/30 07:48:23;;;;;;;;;1.00;1.00;;;;;20.43;36.89;101554.38;5030057;28;45492;-75
2021/11/30 07:50:49;;;;;;;;;4.25;3.00;;;;;20.43;36.76;101547.25;5030547;27;45404;-74
2021/11/30 07:53:15;;;;;;;;;1.00;0.00;;;;;20.32;36.86;101540.41;5029551;27;45564;-75
2021/11/30 07:55:41;;;;;;;;;2.00;2.00;;;;;20.41;37.11;101557.13;5030551;28;45545;-74
2021/11/30 07:58:06;;;;;;;;;3.00;2.00;;;;;20.31;36.80;101537.88;5032337;28;46280;-76
2021/11/30 08:00:33;;;;;;;;;1.50;1.50;;;;;20.42;36.90;101557.97;5030034;27;45425;-74
2021/11/30 08:03:00;;;;;;;;;2.00;2.00;;;;;20.41;37.14;101562.44;5029704;28;45353;-75
2021/11/30 08:05:25;;;;;;;;;2.00;2.00;;;;;20.39;36.74;101554.66;5028572;28;45453;-75
2021/11/30 08:07:51;;;;;;;;;1.00;1.00;;;;;20.39;36.75;101552.00;5030034;28;45519;-75
2021/11/30 08:10:19;;;;;;;;;2.25;2.00;;;;;20.35;37.00;101542.72;5032360;28;45420;-74
2021/11/30 08:12:45;;;;;;;;;2.25;1.00;;;;;20.38;36.66;101547.69;5030230;28;45492;-75
2021/11/30 08:15:16;;;;;;;;;4.00;2.75;;;;;20.36;36.82;101541.75;5029937;28;45575;-74
2021/11/30 08:17:42;;;;;;;;;2.00;1.00;;;;;20.38;36.96;101553.00;5029381;28;47254;-75
2021/11/30 08:20:08;;;;;;;;;3.25;2.00;;;;;20.37;36.89;101547.88;5028403;27;45741;-75
2021/11/30 08:22:35;;;;;;;;;2.00;2.00;;;;;20.37;36.98;101550.50;5031186;28;45327;-75
2021/11/30 08:25:01;;;;;;;;;2.00;2.00;;;;;20.34;36.62;101545.53;5031882;28;45246;-75
2021/11/30 08:27:26;;;;;;;;;1.00;1.00;;;;;20.24;36.93;101541.16;5029556;28;45343;-75
2021/11/30 08:29:51;;;;;;;;;2.00;2.00;;;;;20.23;36.91;101534.19;5028363;28;45428;-75
2021/11/30 08:32:24;;;;;;;;;1.25;1.00;;;;;20.36;36.90;101554.97;5030578;27;45361;-74
2021/11/30 08:34:52;;;;;;;;;3.00;2.00;;;;;20.36;36.91;101559.41;5016164;28;45362;-75
2021/11/30 08:37:19;;;;;;;;;2.75;1.50;;;;;20.34;36.85;101554.28;5030925;28;45256;-75
2021/11/30 08:39:48;;;;;;;;;2.75;2.00;;;;;20.36;36.85;101554.97;5032666;28;47430;-75
2021/11/30 08:42:14;;;;;;;;;1.50;1.50;;;;;20.35;36.85;101547.19;5032861;28;45516;-75
2021/11/30 08:44:40;;;;;;;;;1.00;1.00;;;;;20.20;37.03;101526.56;5032672;28;45418;-74
2021/11/30 08:47:08;;;;;;;;;1.75;1.25;;;;;20.31;37.06;101548.47;5032453;28;45852;-75
2021/11/30 08:49:33;;;;;;;;;2.75;2.75;;;;;20.32;36.90;101548.31;5033021;28;45590;-74
2021/11/30 08:52:00;;;;;;;;;1.50;1.50;;;;;20.27;37.27;101534.72;5034516;28;45467;-75
2021/11/30 08:54:28;;;;;;;;;2.25;2.25;;;;;20.36;36.94;101548.84;5032556;28;45467;-75
2021/11/30 08:56:54;;;;;;;;;2.25;2.00;;;;;20.36;36.98;101547.03;5032243;28;45376;-75
2021/11/30 08:59:19;;;;;;;;;2.00;2.00;;;;;20.37;36.87;101547.88;5031168;27;45434;-75
2021/11/30 09:01:46;;;;;;;;;1.00;1.00;;;;;20.36;36.67;101541.75;5032378;28;45401;-76
2021/11/30 09:04:11;;;;;;;;;1.75;1.75;;;;;20.37;36.94;101546.06;5034632;28;45259;-74
2021/11/30 09:06:37;;;;;;;;;3.75;1.00;;;;;20.27;36.98;101517.03;5032201;28;45303;-75
2021/11/30 09:09:06;;;;;;;;;1.25;1.25;;;;;20.28;36.69;101525.81;5032422;28;45318;-74
2021/11/30 09:11:32;;;;;;;;;1.25;1.00;;;;;20.40;36.91;101550.22;5031158;28;45351;-74
2021/11/30 09:13:57;;;;;;;;;2.00;2.00;;;;;20.41;36.88;101549.22;5032433;27;45582;-75
2021/11/30 09:16:22;;;;;;;;;1.00;1.00;;;;;20.42;36.88;101544.75;5033592;28;45379;-75
2021/11/30 09:18:48;;;;;;;;;1.00;1.00;;;;;20.42;36.64;101548.25;5032989;28;45574;-74
2021/11/30 09:21:14;;;;;;;;;1.00;1.00;;;;;20.43;36.84;101543.78;5032190;28;45527;-75
2021/11/30 09:23:39;;;;;;;;;2.50;1.50;;;;;20.42;36.96;101544.75;5031968;28;45484;-75
2021/11/30 09:26:05;;;;;;;;;1.50;1.50;;;;;20.43;36.98;101549.06;5032320;27;46041;-75
2021/11/30 09:28:30;;;;;;;;;1.00;1.00;;;;;20.42;36.81;101553.53;5032925;28;45405;-74
2021/11/30 09:30:55;;;;;;;;;1.00;1.00;;;;;20.36;37.06;101547.03;5033234;28;45497;-75
2021/11/30 09:33:21;;;;;;;;;1.75;1.75;;;;;20.16;36.93;101507.56;5032204;28;45440;-74
2021/11/30 09:35:46;;;;;;;;;1.00;1.00;;;;;20.14;36.73;101501.56;5032155;27;45527;-75
2021/11/30 09:38:12;;;;;;;;;3.00;1.00;;;;;20.39;36.91;101537.97;5030762;28;45317;-74
2021/11/30 09:40:39;;;;;;;;;1.25;1.00;;;;;20.39;36.82;101549.38;5032264;28;45920;-75
2021/11/30 09:43:07;;;;;;;;;2.50;1.50;;;;;20.39;36.58;101551.19;5033207;28;45484;-75
2021/11/30 09:45:37;;;;;;;;;2.25;2.00;;;;;20.39;36.59;101553.81;5031745;27;46182;-74
2021/11/30 09:48:02;;;;;;;;;2.00;2.00;;;;;20.38;36.94;101553.00;5031834;28;45516;-75
2021/11/30 09:50:28;;;;;;;;;1.50;1.00;;;;;20.37;36.90;101559.28;5030854;28;45332;-75
2021/11/30 09:52:55;;;;;;;;;2.00;1.00;;;;;20.34;37.01;101554.28;5030708;28;45417;-75
2021/11/30 09:55:23;;;;;;;;;1.00;1.00;;;;;20.24;37.16;101535.03;5033602;27;46440;-76
2021/11/30 09:57:52;;;;;;;;;1.00;1.00;;;;;20.38;36.85;101560.91;5030585;28;45452;-74
2021/11/30 10:00:19;;;;;;;;;1.25;1.00;;;;;20.37;36.94;101556.63;5031770;28;47681;-75
2021/11/30 10:02:45;;;;;;;;;1.00;1.00;;;;;20.37;37.13;101550.50;5031920;28;45393;-74
2021/11/30 10:05:10;;;;;;;;;2.00;1.50;;;;;20.37;37.08;101551.34;5031550;28;46574;-75
2021/11/30 10:07:40;;;;;;;;;2.00;2.00;;;;;20.37;36.94;101550.50;5031628;27;45337;-75
2021/11/30 10:10:14;;;;;;;;;2.00;2.00;;;;;20.36;37.00;101556.75;5034125;28;45241;-74
2021/11/30 10:12:41;;;;;;;;;1.75;1.75;;;;;20.28;36.86;101539.84;5031233;28;45443;-75
2021/11/30 10:15:09;;;;;;;;;2.00;2.00;;;;;20.36;37.02;101564.69;5030396;28;46137;-75
2021/11/30 10:17:36;;;;;;;;;1.75;1.00;;;;;20.33;36.99;101552.59;5029986;28;45669;-74
2021/11/30 10:20:11;;;;;;;;;1.00;1.00;;;;;20.37;37.09;101559.28;5031466;28;47860;-74
2021/11/30 10:22:39;;;;;;;;;1.75;1.75;;;;;20.36;37.08;101554.97;5031668;28;45409;-75
2021/11/30 10:25:11;;;;;;;;;2.75;2.75;;;;;20.35;37.14;101550.63;5033455;28;46943;-76
2021/11/30 10:27:44;;;;;;;;;1.00;1.00;;;;;20.37;36.95;101558.44;5030962;28;45574;-73
2021/11/30 10:30:17;;;;;;;;;1.25;1.25;;;;;20.36;36.93;101567.34;5030128;28;45515;-75
2021/11/30 10:32:46;;;;;;;;;2.00;2.00;;;;;20.34;37.12;101564.03;5031323;28;45526;-73
2021/11/30 10:35:12;;;;;;;;;2.00;2.00;;;;;20.36;36.83;101562.03;5031281;28;47091;-75
2021/11/30 10:37:44;;;;;;;;;1.50;1.50;;;;;20.36;37.18;101562.03;5031195;27;45351;-75
2021/11/30 10:40:15;;;;;;;;;1.50;1.50;;;;;20.30;37.25;101550.25;5033510;28;45534;-75
2021/11/30 10:42:51;;;;;;;;;1.00;1.00;;;;;20.31;37.17;101551.94;5030700;28;47975;-75
2021/11/30 10:45:37;;;;;;;;;2.75;2.75;;;;;20.34;36.95;101554.28;5030863;28;46323;-75
2021/11/30 10:48:17;;;;;;;;;1.00;1.00;;;;;20.36;37.16;101552.31;5031036;28;45490;-74
2021/11/30 10:50:45;;;;;;;;;0.25;0.25;;;;;20.36;37.10;101543.53;5031029;28;45376;-75
2021/11/30 10:53:14;;;;;;;;;3.00;1.00;;;;;20.36;37.16;101532.97;5031367;28;45365;-74
2021/11/30 10:55:45;;;;;;;;;1.00;1.00;;;;;20.29;37.10;101514.25;4995786;28;47283;-76
2021/11/30 10:58:11;;;;;;;;;1.00;1.00;;;;;20.37;37.26;101524.06;5033173;28;45319;-76
2021/11/30 11:00:37;;;;;;;;;2.00;1.00;;;;;20.23;37.16;101504.28;5030999;28;45308;-74
2021/11/30 11:03:09;;;;;;;;;5.00;2.00;;;;;20.39;37.13;101524.75;5030954;28;45542;-74
2021/11/30 11:05:38;;;;;;;;;1.25;1.00;;;;;20.40;37.01;101521.13;5030802;27;47095;-75
2021/11/30 11:08:05;;;;;;;;;0.50;0.50;;;;;20.40;37.09;101515.84;5029723;27;45425;-75
2021/11/30 11:10:33;;;;;;;;;2.00;1.00;;;;;20.07;37.18;101466.97;5031337;27;45377;-75
2021/11/30 11:13:31;;;;;;;;;1.00;1.00;;;;;20.43;37.06;101523.44;5032752;27;45528;-74
2021/11/30 11:15:58;;;;;;;;;2.75;2.00;;;;;20.31;37.02;101504.38;5032499;28;45694;-75
2021/11/30 11:18:34;;;;;;;;;1.75;1.00;;;;;20.44;37.06;101517.19;5030720;27;45259;-74
2021/11/30 11:21:19;;;;;;;;;1.00;1.00;;;;;20.15;37.12;101465.41;5030369;28;45557;-75
2021/11/30 11:24:04;;;;;;;;;1.00;1.00;;;;;20.44;37.21;101519.00;5030721;27;45483;-75
2021/11/30 11:26:37;;;;;;;;;1.00;1.00;;;;;20.43;36.98;101522.66;5030039;28;46391;-74
2021/11/30 11:29:06;;;;;;;;;0.75;0.75;;;;;20.37;37.13;101501.13;5030689;28;45291;-74
2021/11/30 11:31:32;;;;;;;;;1.00;1.00;;;;;20.43;37.05;101514.72;5031291;28;45409;-75
2021/11/30 11:33:59;;;;;;;;;1.50;1.50;;;;;20.42;36.94;101513.88;5032282;28;45389;-75